Impacts TAF Board
For situational awareness. Not to be used for flight planning purposes.
IDs:

KDFW - Dallas-Ft Worth Intl, TX, US

Issued at 0520 UTC 18 Sep 2021
Updated at 0819 UTC 18 Sep 2021
Potential Impact None Slight Moderate High
Time0753Z 18/09Z 18/10Z 18/11Z 18/12Z 18/13Z 18/14Z 18/15Z 18/16Z 18/17Z 18/18Z 18/19Z 18/20Z 18/21Z>>
Type OBS PRVL PRVL PRVL PRVL PRVL PRVL PRVL PRVL PRVL PRVL PRVL PRVL PRVL
VIS 10 >6 >6 >6 >6 >6 >6 >6 >6 >6 >6 >6 >6 >6
CIG -- -- -- -- -- -- -- -- -- -- -- -- -- --
Cover CLR FEW FEW FEW FEW FEW FEW FEW SCT SCT SCT SCT SCT SCT
FltCat VFR VFR VFR VFR VFR VFR VFR VFR VFR VFR VFR VFR VFR VFR
WX -- -- -- -- -- -- -- -- -- -- -- -- -- --
WDir VRB 360 360 360 360 360 360 360 20 20 20 20 20 20
WSpd 0 4 4 4 4 4 4 4 8 8 8 8 8 8
WGst -- -- -- -- -- -- -- -- -- -- -- -- -- --
Raw TAF
KDFW 180520Z 1806/1912 36004KT P6SM FEW060
  FM181600 02008KT P6SM SCT070


Raw METAR
KDFW 180753Z 00000KT 10SM CLR 25/19 A3002 RMK AO2 SLP155 T02500194
KDFW 180653Z 01003KT 10SM FEW060 26/19 A3002 RMK AO2 SLP156 T02560194
KDFW 180553Z 04006KT 10SM FEW060 25/19 A3002 RMK AO2 SLP155 T02500194 10311 20244 403330217 53002

METAR Board
Radar Display
Forecast Discussion
For situational awareness. Not to be used for flight planning purposes.